Beryl Junction, Utah
Current Conditions -  °F | °C
As of 8:53 AM on Saturday 25 Oct 2014 (Local Time) from KCDC Reporting Station
Clear Clear  
Wind Chill: 13°   Ceiling: Unl
Heat Index: 13°   Visibility: 10mi
Dew Point:   Wind: 9mph
Humidity: 43%   Direction: 260°W
Pressure: 30.21"   Gusts: NA
Location:  38.0286°N, 113.572°W
Report Text: KCDC 251453Z AUTO 26008KT 10SM CLR 13/01 A3021 RMK AO2 SLP187 T01280006 53003 TSNO
Loading
Personal Weather Stations






























Interactive Weather Map
Tropical Storm Tracking
New forecast layout! Learn more

10-Day Weather Forecast

Advertisements
Track Severe Weather on mobile